Airfield :
LOGIN :

Register | Disclaimer

   EN    FR    IT 

 










Legend :    VFR   Marginal VFR   IFR   Intensive IFR   Very Intensive IFR
Visi :
Ceiling :
>= 8 km
>= 3000ft
5 to 8 km
1000 to 3000 ft
1500m to 5 km
500 to 1000 ft
800 to 1500m
200 to 500 ft
< 800m
< 200 ft
Symbols :   Thunderstorms  Fog  Heavy snow  Heavy precipitations  Wind > 20 kt
SIGMETs :     Misc.  Thunderstorms  Icing  Turbulence  Mountain Waves  Volcanic Ashes






- Airport Elevation : 370 ft


EBBE - Beauvechain AB

CURRENT METAR :
  • 282355Z AUTO 24013KT 9999 FEW012/// BKN034/// 03/02 Q1002 BLU

EXPIRED METARs :
  • 282325Z AUTO 24011KT 9999 FEW014/// BKN034/// 03/02 Q1002 BLU
  • 282255Z AUTO 24012KT 9999 BKN030/// BKN037/// 03/02 Q1001 BLU
  • 282225Z AUTO 24011KT 9999 FEW021/// SCT032/// 02/01 Q1001 BLU
  • 282215Z AUTO 24011KT 9999 FEW009/// SCT029/// BKN043/// 02/01 Q1001 BLU
  • 282155Z AUTO 24012KT 9999 FEW007/// SCT009/// BKN011/// 02/01 Q1001 GRN
  • 282125Z AUTO 23015KT 9999 -RA FEW006/// BKN009/// BKN016/// 02/01 Q1000 GRN

TAF TAF EBBE
Valid from the 28 at 19:00 until the 29 at 07:00 UTC


281541Z 2819/2907 22020G30KT 9999 FEW025 SCT035
BECMG 2903/2905 27015G25KT SCT020 SCT030



MET'MAP, your aeronautical weather chart ! - Copyright ORBIFLY December 2007 - Disclaimer

ORBIFLY MET'MAP TEAM :

Programming & Development : Alexandra Zaïnal
Concept & original design : Baudouin d'Aumeries
Assistance for programming : Marc-Olivier Méhu
Technical & hardware support : Manuel Goepfert

Contact : metmap@orbifly.com




SOURCES & CREDITS :

   NOAA